createdAt,value
2023-05-08T00:02:08.590Z,67439.34
2023-05-08T00:04:38.382Z,67182.00
2023-05-08T00:07:08.499Z,66924.69
2023-05-08T00:09:35.715Z,67182.00
2023-05-08T00:12:03.212Z,66924.69
2023-05-08T00:14:30.621Z,66152.84
2023-05-08T00:17:03.081Z,64866.81
2023-05-08T00:19:30.619Z,65123.97
2023-05-08T00:21:57.999Z,64866.81
2023-05-08T00:24:27.983Z,64352.53
2023-05-08T00:26:55.223Z,64095.41
2023-05-08T00:29:22.942Z,64095.41
2023-05-08T00:31:53.389Z,63838.31
2023-05-08T00:34:20.741Z,63581.25
2023-05-08T00:36:48.252Z,63324.19
2023-05-08T00:39:15.624Z,64352.53
2023-05-08T00:41:45.936Z,64866.81
2023-05-08T00:44:15.647Z,64609.66
2023-05-08T00:46:46.619Z,64866.81
2023-05-08T00:49:14.606Z,64866.81
2023-05-08T00:51:43.565Z,65123.97
2023-05-08T00:54:12.709Z,65381.16
2023-05-08T00:56:40.873Z,65123.97
2023-05-08T00:59:13.449Z,65123.97
2023-05-08T01:01:41.448Z,65895.59
2023-05-08T01:04:10.674Z,65895.59
2023-05-08T01:06:42.730Z,65638.38
2023-05-08T01:09:12.315Z,65895.59
2023-05-08T01:11:48.661Z,65381.16
2023-05-08T01:14:22.552Z,65638.38
2023-05-08T01:17:16.399Z,65381.16
2023-05-08T01:20:05.307Z,65123.97
2023-05-08T01:22:59.971Z,64609.66
2023-05-08T01:26:01.616Z,64352.53
2023-05-08T01:29:03.785Z,64866.81
2023-05-08T01:31:49.443Z,65638.38
2023-05-08T01:34:25.362Z,65123.97
2023-05-08T01:37:05.401Z,65123.97
2023-05-08T01:40:02.598Z,64095.41
2023-05-08T01:43:10.703Z,64095.41
2023-05-08T01:45:45.710Z,65381.16
2023-05-08T01:48:24.998Z,65123.97
2023-05-08T01:51:18.223Z,64609.66
2023-05-08T01:53:49.056Z,65381.16
2023-05-08T01:56:22.118Z,66152.84
2023-05-08T01:58:56.773Z,64609.66
2023-05-08T02:01:25.784Z,64352.53
2023-05-08T02:03:59.919Z,64352.53
2023-05-08T02:06:29.076Z,64352.53
2023-05-08T02:08:58.831Z,63838.31
2023-05-08T02:11:26.251Z,63581.25
2023-05-08T02:13:57.831Z,63581.25
2023-05-08T02:16:31.607Z,64095.41
2023-05-08T02:19:01.842Z,63838.31
2023-05-08T02:21:35.855Z,63838.31
2023-05-08T02:24:09.249Z,63838.31
2023-05-08T02:26:41.426Z,63838.31
2023-05-08T02:29:09.502Z,64095.41
2023-05-08T02:31:41.794Z,64095.41
2023-05-08T02:34:11.013Z,64352.53
2023-05-08T02:36:39.755Z,63838.31
2023-05-08T02:39:11.707Z,63838.31
2023-05-08T02:41:44.289Z,63838.31
2023-05-08T02:44:12.435Z,63581.25
2023-05-08T02:46:58.723Z,63067.16
2023-05-08T02:49:38.949Z,62553.16
2023-05-08T02:52:21.186Z,62039.22
2023-05-08T02:55:04.475Z,61525.38
2023-05-08T02:57:48.272Z,61782.28
2023-05-08T03:00:20.679Z,61268.47
2023-05-08T03:02:56.226Z,60754.75
2023-05-08T03:05:37.076Z,61011.59
2023-05-08T03:08:08.607Z,61268.47
2023-05-08T03:10:40.364Z,61011.59
2023-05-08T03:13:10.365Z,61011.59
2023-05-08T03:15:43.486Z,60754.75
2023-05-08T03:18:14.966Z,61011.59
2023-05-08T03:20:48.454Z,61268.47
2023-05-08T03:23:21.721Z,61268.47
2023-05-08T03:25:49.209Z,62039.22
2023-05-08T03:28:19.349Z,62296.19
2023-05-08T03:30:48.268Z,62553.16
2023-05-08T03:33:17.809Z,62039.22
2023-05-08T03:35:48.318Z,62296.19
2023-05-08T03:38:17.158Z,61782.28
2023-05-08T03:40:47.609Z,61525.38
2023-05-08T03:43:16.522Z,61268.47
2023-05-08T03:45:46.070Z,61268.47
2023-05-08T03:48:15.394Z,60497.91
2023-05-08T03:50:44.766Z,60754.75
2023-05-08T03:53:12.129Z,60754.75
2023-05-08T03:55:42.004Z,61011.59
2023-05-08T03:58:36.994Z,60754.75
2023-05-08T04:01:13.364Z,61268.47
2023-05-08T04:03:55.051Z,60754.75
2023-05-08T04:06:35.703Z,61525.38
2023-05-08T04:09:31.166Z,61011.59
2023-05-08T04:12:26.616Z,59984.28
2023-05-08T04:15:00.849Z,61011.59
2023-05-08T04:17:37.840Z,60497.91
2023-05-08T04:20:09.130Z,60241.09
2023-05-08T04:22:39.801Z,59984.28
2023-05-08T04:25:08.836Z,59727.50
2023-05-08T04:27:38.887Z,61011.59
2023-05-08T04:30:10.950Z,62296.19
2023-05-08T04:32:46.488Z,62553.16
2023-05-08T04:35:15.876Z,62553.16
2023-05-08T04:37:47.824Z,61782.28
2023-05-08T04:40:15.668Z,61525.38
2023-05-08T04:42:43.612Z,61782.28
2023-05-08T04:45:11.839Z,61011.59
2023-05-08T04:47:39.825Z,60241.09
2023-05-08T04:50:07.574Z,59214.00
2023-05-08T04:52:36.062Z,59214.00
2023-05-08T04:55:04.206Z,58700.59
2023-05-08T04:57:35.310Z,59214.00
2023-05-08T05:00:06.027Z,62810.16
2023-05-08T05:02:39.262Z,64866.81
2023-05-08T05:05:08.613Z,65638.38
2023-05-08T05:07:37.314Z,64095.41
2023-05-08T05:10:05.760Z,63838.31
2023-05-08T05:12:38.895Z,63838.31
2023-05-08T05:15:10.362Z,63067.16
2023-05-08T05:17:38.972Z,62810.16
2023-05-08T05:20:11.861Z,62553.16
2023-05-08T05:22:39.112Z,61782.28
2023-05-08T05:25:16.086Z,61782.28
2023-05-08T05:27:43.857Z,62039.22
2023-05-08T05:30:12.472Z,62553.16
2023-05-08T05:32:40.101Z,63067.16
2023-05-08T05:35:09.087Z,63324.19
2023-05-08T05:37:36.514Z,63324.19
2023-05-08T05:40:04.279Z,63581.25
2023-05-08T05:42:33.438Z,63581.25
2023-05-08T05:45:01.900Z,63838.31
2023-05-08T05:47:30.437Z,64095.41
2023-05-08T05:49:58.887Z,64352.53
2023-05-08T05:52:26.799Z,64866.81
2023-05-08T05:54:54.166Z,65123.97
2023-05-08T05:57:21.854Z,65895.59
2023-05-08T05:59:49.590Z,66410.09
2023-05-08T06:02:20.456Z,67182.00
2023-05-08T06:04:49.958Z,67696.72
2023-05-08T06:07:21.115Z,67696.72
2023-05-08T06:09:48.331Z,67696.72
2023-05-08T06:12:18.427Z,67696.72
2023-05-08T06:14:45.916Z,68211.50
2023-05-08T06:17:13.472Z,68468.91
2023-05-08T06:19:41.275Z,68211.50
2023-05-08T06:22:08.465Z,68211.50
2023-05-08T06:24:36.454Z,68468.91
2023-05-08T06:27:03.860Z,68726.38
2023-05-08T06:29:31.105Z,68983.81
2023-05-08T06:31:58.465Z,69498.81
2023-05-08T06:34:25.799Z,70013.84
2023-05-08T06:36:53.052Z,70786.59
2023-05-08T06:39:23.427Z,71301.84
2023-05-08T06:41:50.672Z,71817.16
2023-05-08T06:44:25.895Z,72074.84
2023-05-08T06:46:53.154Z,72332.56
2023-05-08T06:49:22.997Z,72590.28
2023-05-08T06:51:50.248Z,72074.84
2023-05-08T06:54:17.909Z,72332.56
2023-05-08T06:56:47.434Z,72590.28
2023-05-08T06:59:14.806Z,72332.56
2023-05-08T07:01:42.210Z,72848.03
2023-05-08T07:04:09.475Z,73105.81
2023-05-08T07:06:41.645Z,73363.59
2023-05-08T07:09:09.752Z,73621.41
2023-05-08T07:11:37.245Z,73621.41
2023-05-08T07:14:04.474Z,73363.59
2023-05-08T07:16:32.080Z,73879.22
2023-05-08T07:18:59.589Z,74137.09
2023-05-08T07:21:26.980Z,73879.22
2023-05-08T07:23:56.613Z,73879.22
2023-05-08T07:26:24.143Z,73879.22
2023-05-08T07:28:54.168Z,74137.09
2023-05-08T07:31:22.755Z,74910.75
2023-05-08T07:33:50.380Z,75168.66
2023-05-08T07:36:19.894Z,75426.59
2023-05-08T07:38:47.242Z,75426.59
2023-05-08T07:41:14.492Z,75684.56
2023-05-08T07:43:43.930Z,75426.59
2023-05-08T07:46:20.920Z,75684.56
2023-05-08T07:48:48.920Z,76200.56
2023-05-08T07:51:18.682Z,75426.59
2023-05-08T07:53:46.120Z,75426.59
2023-05-08T07:56:15.908Z,74910.75
2023-05-08T07:58:45.847Z,74394.94
2023-05-08T08:01:17.784Z,74137.09
2023-05-08T08:03:48.358Z,73363.59
2023-05-08T08:06:18.523Z,73105.81
2023-05-08T08:08:45.791Z,72332.56
2023-05-08T08:11:42.366Z,72074.84
2023-05-08T08:14:20.131Z,72074.84
2023-05-08T08:16:50.283Z,71044.19
2023-05-08T08:19:17.700Z,69241.31
2023-05-08T08:21:46.122Z,68211.50
2023-05-08T08:24:16.598Z,68468.91
2023-05-08T08:26:43.810Z,68211.50
2023-05-08T08:29:11.327Z,67954.09
2023-05-08T08:31:41.368Z,67439.34
2023-05-08T08:34:08.656Z,67696.72
2023-05-08T08:36:53.177Z,67696.72
2023-05-08T08:39:22.673Z,68468.91
2023-05-08T08:41:53.059Z,67696.72
2023-05-08T08:44:25.582Z,67439.34
2023-05-08T08:46:53.817Z,67954.09
2023-05-08T08:49:41.478Z,66924.69
2023-05-08T08:52:21.320Z,68211.50
2023-05-08T08:54:50.582Z,69756.31
2023-05-08T08:57:20.102Z,70528.97
2023-05-08T08:59:50.311Z,70528.97
2023-05-08T09:02:22.543Z,71044.19
2023-05-08T09:04:51.822Z,70786.59
2023-05-08T09:07:19.540Z,70271.41
2023-05-08T09:09:47.101Z,69241.31
2023-05-08T09:12:14.750Z,69241.31
2023-05-08T09:14:42.365Z,68983.81
2023-05-08T09:17:10.227Z,68211.50
2023-05-08T09:19:38.058Z,67439.34
2023-05-08T09:22:09.241Z,66667.38
2023-05-08T09:25:03.326Z,64609.66
2023-05-08T09:27:33.404Z,66410.09
2023-05-08T09:30:11.551Z,65123.97
2023-05-08T09:32:41.376Z,64866.81
2023-05-08T09:35:09.989Z,64609.66
2023-05-08T09:37:43.063Z,63324.19
2023-05-08T09:40:18.366Z,63067.16
2023-05-08T09:42:49.556Z,62810.16
2023-05-08T09:45:31.733Z,61782.28
2023-05-08T09:47:59.399Z,63581.25
2023-05-08T09:50:27.587Z,63324.19
2023-05-08T09:52:54.878Z,64095.41
2023-05-08T09:55:22.500Z,64352.53
2023-05-08T09:57:53.994Z,63067.16
2023-05-08T10:00:22.015Z,62296.19
2023-05-08T10:03:01.272Z,59727.50
2023-05-08T10:05:34.488Z,59470.75
2023-05-08T10:08:24.221Z,57417.38
2023-05-08T10:10:51.693Z,58957.28
2023-05-08T10:13:21.356Z,62553.16
2023-05-08T10:15:54.236Z,68726.38
2023-05-08T10:18:24.403Z,72590.28
2023-05-08T10:20:57.417Z,70013.84
2023-05-08T10:23:25.721Z,67954.09
2023-05-08T10:26:02.703Z,66410.09
2023-05-08T10:28:57.493Z,64609.66
2023-05-08T10:31:27.984Z,65895.59
2023-05-08T10:34:01.917Z,64866.81
2023-05-08T10:36:31.182Z,64095.41
2023-05-08T10:39:01.425Z,63581.25
2023-05-08T10:41:34.695Z,63838.31
2023-05-08T10:44:03.449Z,62296.19
2023-05-08T10:47:10.896Z,59470.75
2023-05-08T10:49:51.374Z,61268.47
2023-05-08T10:52:32.106Z,60754.75
2023-05-08T10:55:09.416Z,60497.91
2023-05-08T10:57:36.704Z,59727.50
2023-05-08T11:00:09.609Z,58700.59
2023-05-08T11:02:38.332Z,58957.28
2023-05-08T11:05:17.798Z,57930.59
2023-05-08T11:07:55.686Z,58957.28
2023-05-08T11:10:30.688Z,59214.00
2023-05-08T11:13:00.047Z,59470.75
2023-05-08T11:15:41.089Z,57417.38
2023-05-08T11:18:16.261Z,59214.00
2023-05-08T11:20:57.967Z,59470.75
2023-05-08T11:23:29.129Z,59984.28
2023-05-08T11:26:00.503Z,60497.91
2023-05-08T11:28:32.163Z,61011.59
2023-05-08T11:31:06.075Z,61011.59
2023-05-08T11:33:37.836Z,61525.38
2023-05-08T11:36:22.198Z,61011.59
2023-05-08T11:39:13.227Z,59984.28
2023-05-08T11:41:41.083Z,60754.75
2023-05-08T11:44:20.704Z,59984.28
2023-05-08T11:46:54.706Z,60497.91
2023-05-08T11:49:29.864Z,58700.59
2023-05-08T11:52:00.280Z,58443.91
2023-05-08T11:54:32.748Z,57160.78
2023-05-08T11:57:01.821Z,56134.63
2023-05-08T11:59:29.205Z,55621.66
2023-05-08T12:02:08.405Z,55365.22
2023-05-08T12:04:48.462Z,54339.59
2023-05-08T12:07:16.419Z,55365.22
2023-05-08T12:09:48.926Z,55621.66
2023-05-08T12:12:18.618Z,56391.13
2023-05-08T12:14:52.083Z,56647.66
2023-05-08T12:17:19.696Z,57673.97
2023-05-08T12:19:47.285Z,57930.59
2023-05-08T12:22:14.454Z,57930.59
2023-05-08T12:24:44.399Z,58443.91
2023-05-08T12:27:16.107Z,59727.50
2023-05-08T12:29:51.137Z,59214.00
2023-05-08T12:32:18.441Z,59214.00
2023-05-08T12:34:45.869Z,58957.28
2023-05-08T12:37:23.534Z,58443.91
2023-05-08T12:39:50.844Z,58187.25
2023-05-08T12:42:18.269Z,58700.59
2023-05-08T12:44:52.988Z,58443.91
2023-05-08T12:47:22.432Z,58957.28
2023-05-08T12:49:50.156Z,58957.28
2023-05-08T12:52:18.471Z,58700.59
2023-05-08T12:54:49.353Z,59214.00
2023-05-08T12:57:18.877Z,59214.00
2023-05-08T12:59:49.028Z,59727.50
2023-05-08T13:02:21.407Z,61011.59
2023-05-08T13:04:55.937Z,67696.72
2023-05-08T13:07:31.313Z,74137.09
2023-05-08T13:10:05.433Z,74652.84
2023-05-08T13:12:35.164Z,74394.94
2023-05-08T13:15:04.804Z,73879.22
2023-05-08T13:17:32.291Z,74137.09
2023-05-08T13:19:59.662Z,74652.84
2023-05-08T13:22:27.050Z,74910.75
2023-05-08T13:24:54.349Z,75168.66
2023-05-08T13:27:22.101Z,75168.66
2023-05-08T13:29:49.453Z,75426.59
2023-05-08T13:32:17.133Z,74652.84
2023-05-08T13:34:50.467Z,74910.75
2023-05-08T13:37:19.186Z,75168.66
2023-05-08T13:39:47.566Z,75942.56
2023-05-08T13:42:17.134Z,78007.13
2023-05-08T13:44:47.003Z,79556.34
2023-05-08T13:47:14.255Z,81106.28
2023-05-08T13:49:44.899Z,82139.97
2023-05-08T13:52:14.336Z,82656.94
2023-05-08T13:54:41.607Z,82915.44
2023-05-08T13:57:13.012Z,83173.97
2023-05-08T13:59:42.501Z,83691.06
2023-05-08T14:02:10.007Z,83949.66
2023-05-08T14:04:40.738Z,83949.66
2023-05-08T14:07:07.952Z,84725.53
2023-05-08T14:09:37.693Z,84984.19
2023-05-08T14:12:07.396Z,85501.56
2023-05-08T14:14:39.561Z,85242.88
2023-05-08T14:17:07.259Z,86277.78
2023-05-08T14:19:35.213Z,86019.03
2023-05-08T14:22:02.674Z,86019.03
2023-05-08T14:24:32.453Z,86019.03
2023-05-08T14:26:59.743Z,85760.28
2023-05-08T14:29:29.323Z,84984.19
2023-05-08T14:32:01.315Z,85242.88
2023-05-08T14:34:28.845Z,85501.56
2023-05-08T14:36:56.417Z,86536.56
2023-05-08T14:39:23.750Z,87313.03
2023-05-08T14:42:14.099Z,87313.03
2023-05-08T14:44:40.772Z,87313.03
2023-05-08T14:47:10.372Z,87571.88
2023-05-08T14:49:38.816Z,87571.88
2023-05-08T14:52:06.988Z,87313.03
2023-05-08T14:54:37.711Z,87054.19
2023-05-08T14:57:08.346Z,87313.03
2023-05-08T14:59:35.858Z,87313.03
2023-05-08T15:02:03.385Z,87571.88
2023-05-08T15:04:30.888Z,88089.66
2023-05-08T15:07:00.779Z,88089.66
2023-05-08T15:09:28.006Z,88348.56
2023-05-08T15:11:55.669Z,88348.56
2023-05-08T15:14:27.440Z,88348.56
2023-05-08T15:16:59.216Z,88607.50
2023-05-08T15:19:26.758Z,88607.50
2023-05-08T15:21:56.481Z,88348.56
2023-05-08T15:24:23.653Z,88348.56
2023-05-08T15:26:53.284Z,88348.56
2023-05-08T15:29:20.554Z,87830.75
2023-05-08T15:31:48.022Z,86277.78
2023-05-08T15:34:15.478Z,85501.56
2023-05-08T15:36:46.330Z,84725.53
2023-05-08T15:39:16.134Z,84725.53
2023-05-08T15:41:44.247Z,84208.25
2023-05-08T15:44:13.245Z,84208.25
2023-05-08T15:46:40.528Z,83949.66
2023-05-08T15:49:07.797Z,83949.66
2023-05-08T15:51:37.457Z,84466.88
2023-05-08T15:54:04.578Z,83949.66
2023-05-08T15:56:34.873Z,83432.50
2023-05-08T15:59:04.459Z,82915.44
2023-05-08T16:01:31.744Z,82656.94
2023-05-08T16:04:01.457Z,82656.94
2023-05-08T16:06:29.244Z,82656.94
2023-05-08T16:09:03.596Z,82656.94
2023-05-08T16:11:31.961Z,83173.97
2023-05-08T16:13:59.801Z,83173.97
2023-05-08T16:16:28.016Z,83173.97
2023-05-08T16:18:55.670Z,82915.44
2023-05-08T16:21:23.043Z,82915.44
2023-05-08T16:23:50.492Z,83691.06
2023-05-08T16:26:20.259Z,83173.97
2023-05-08T16:28:50.539Z,83173.97
2023-05-08T16:31:17.851Z,82139.97
2023-05-08T16:33:45.197Z,91716.22
2023-05-08T16:36:13.413Z,96903.63
2023-05-08T16:38:45.783Z,98980.75
2023-05-08T16:41:13.436Z,98201.69
2023-05-08T16:43:40.918Z,97682.41
2023-05-08T16:46:08.572Z,95865.50
2023-05-08T16:48:35.870Z,94049.59
2023-05-08T16:51:05.455Z,93012.34
2023-05-08T16:53:51.268Z,91457.03
2023-05-08T16:56:39.344Z,90679.66
2023-05-08T16:59:15.858Z,90161.50
2023-05-08T17:01:43.116Z,90679.66
2023-05-08T17:04:12.804Z,90938.78
2023-05-08T17:06:42.688Z,90161.50
2023-05-08T17:09:10.153Z,89902.44
2023-05-08T17:11:39.887Z,89643.41
2023-05-08T17:14:11.309Z,90161.50
2023-05-08T17:16:41.253Z,90161.50
2023-05-08T17:19:08.615Z,89643.41
2023-05-08T17:21:41.083Z,89384.41
2023-05-08T17:24:08.800Z,89384.41
2023-05-08T17:26:36.334Z,89384.41
2023-05-08T17:29:03.708Z,88866.44
2023-05-08T17:31:31.287Z,89125.41
2023-05-08T17:33:59.172Z,89384.41
2023-05-08T17:36:26.549Z,89125.41
2023-05-08T17:38:56.219Z,89384.41
2023-05-08T17:41:26.049Z,89643.41
2023-05-08T17:43:53.999Z,89902.44
2023-05-08T17:46:23.984Z,89902.44
2023-05-08T17:48:53.514Z,90161.50
2023-05-08T17:51:21.779Z,89902.44
2023-05-08T17:53:49.180Z,89902.44
2023-05-08T17:56:20.514Z,89643.41
2023-05-08T17:58:51.885Z,89384.41
2023-05-08T18:01:29.789Z,89384.41
2023-05-08T18:03:57.895Z,89125.41
2023-05-08T18:06:25.449Z,89125.41
2023-05-08T18:08:52.756Z,89125.41
2023-05-08T18:11:24.438Z,89125.41
2023-05-08T18:13:54.628Z,89125.41
2023-05-08T18:16:22.737Z,89384.41
2023-05-08T18:18:50.528Z,89643.41
2023-05-08T18:21:18.070Z,89643.41
2023-05-08T18:23:45.312Z,89643.41
2023-05-08T18:26:16.878Z,89125.41
2023-05-08T18:28:44.390Z,88866.44
2023-05-08T18:31:12.131Z,88607.50
2023-05-08T18:33:39.444Z,88866.44
2023-05-08T18:36:07.120Z,88866.44
2023-05-08T18:38:37.351Z,89125.41
2023-05-08T18:41:05.926Z,89125.41
2023-05-08T18:43:33.858Z,88866.44
2023-05-08T18:46:12.312Z,88607.50
2023-05-08T18:48:43.544Z,89125.41
2023-05-08T18:51:13.178Z,89384.41
2023-05-08T18:53:42.682Z,89384.41
2023-05-08T18:56:11.528Z,89643.41
2023-05-08T18:58:43.313Z,89384.41
2023-05-08T19:01:10.599Z,89384.41
2023-05-08T19:03:38.728Z,89125.41
2023-05-08T19:06:06.545Z,88866.44
2023-05-08T19:08:34.112Z,88866.44
2023-05-08T19:11:03.933Z,88348.56
2023-05-08T19:13:31.436Z,88348.56
2023-05-08T19:16:00.687Z,87830.75
2023-05-08T19:18:32.339Z,87313.03
2023-05-08T19:21:03.174Z,87313.03
2023-05-08T19:23:32.896Z,87054.19
2023-05-08T19:26:00.676Z,87571.88
2023-05-08T19:28:28.111Z,87830.75
2023-05-08T19:30:55.492Z,88089.66
2023-05-08T19:33:22.829Z,88089.66
2023-05-08T19:35:52.695Z,87830.75
2023-05-08T19:38:20.116Z,87571.88
2023-05-08T19:40:56.224Z,87313.03
2023-05-08T19:43:26.551Z,87571.88
2023-05-08T19:45:58.516Z,87571.88
2023-05-08T19:48:25.870Z,87571.88
2023-05-08T19:50:55.822Z,87571.88
2023-05-08T19:53:23.941Z,87313.03
2023-05-08T19:55:53.744Z,87313.03
2023-05-08T19:58:22.967Z,87054.19
2023-05-08T20:00:51.196Z,87313.03
2023-05-08T20:03:21.315Z,87054.19
2023-05-08T20:05:48.581Z,87313.03
2023-05-08T20:08:15.996Z,87313.03
2023-05-08T20:10:43.556Z,87313.03
2023-05-08T20:13:11.110Z,87313.03
2023-05-08T20:15:40.760Z,87313.03
2023-05-08T20:18:10.490Z,86795.38
2023-05-08T20:20:37.841Z,86277.78
2023-05-08T20:23:05.009Z,85760.28
2023-05-08T20:25:32.681Z,84984.19
2023-05-08T20:27:59.963Z,84984.19
2023-05-08T20:30:29.826Z,84725.53
2023-05-08T20:33:01.964Z,84725.53
2023-05-08T20:35:35.320Z,84984.19
2023-05-08T20:38:05.126Z,85242.88
2023-05-08T20:40:32.325Z,85501.56
2023-05-08T20:42:59.847Z,85760.28
2023-05-08T20:45:28.419Z,86019.03
2023-05-08T20:47:55.737Z,86277.78
2023-05-08T20:50:23.405Z,86536.56
2023-05-08T20:52:50.707Z,86536.56
2023-05-08T20:55:18.202Z,86277.78
2023-05-08T20:57:47.999Z,86019.03
2023-05-08T21:00:17.494Z,86019.03
2023-05-08T21:02:47.325Z,86277.78
2023-05-08T21:05:16.861Z,86536.56
2023-05-08T21:07:44.439Z,86795.38
2023-05-08T21:10:12.347Z,86536.56
2023-05-08T21:12:39.611Z,86795.38
2023-05-08T21:15:07.883Z,87054.19
2023-05-08T21:17:37.737Z,86795.38
2023-05-08T21:20:08.676Z,86795.38
2023-05-08T21:22:36.312Z,87054.19
2023-05-08T21:25:15.241Z,87313.03
2023-05-08T21:27:43.420Z,87054.19
2023-05-08T21:30:15.323Z,86795.38
2023-05-08T21:32:44.271Z,86536.56
2023-05-08T21:35:14.267Z,86277.78
2023-05-08T21:37:44.901Z,85760.28
2023-05-08T21:40:12.560Z,85242.88
2023-05-08T21:42:39.844Z,85242.88
2023-05-08T21:45:07.535Z,84984.19
2023-05-08T21:47:34.869Z,84984.19
2023-05-08T21:50:02.343Z,84725.53
2023-05-08T21:52:29.915Z,84984.19
2023-05-08T21:54:57.213Z,84984.19
2023-05-08T21:57:27.001Z,84984.19
2023-05-08T21:59:54.263Z,84725.53
2023-05-08T22:02:21.645Z,84466.88
2023-05-08T22:04:51.303Z,84208.25
2023-05-08T22:07:23.479Z,84208.25
2023-05-08T22:09:53.639Z,84466.88
2023-05-08T22:12:20.810Z,84466.88
2023-05-08T22:14:50.486Z,84466.88
2023-05-08T22:17:19.942Z,84466.88
2023-05-08T22:19:47.209Z,84208.25
2023-05-08T22:22:14.500Z,84208.25
2023-05-08T22:24:41.975Z,84208.25
2023-05-08T22:27:09.443Z,84208.25
2023-05-08T22:29:41.164Z,84466.88
2023-05-08T22:32:08.988Z,84725.53
2023-05-08T22:34:37.442Z,84466.88
2023-05-08T22:37:04.698Z,84208.25
2023-05-08T22:39:33.243Z,83949.66
2023-05-08T22:42:03.057Z,83949.66
2023-05-08T22:44:30.718Z,83949.66
2023-05-08T22:46:58.416Z,83949.66
2023-05-08T22:49:25.801Z,83691.06
2023-05-08T22:51:53.319Z,83432.50
2023-05-08T22:54:20.585Z,83949.66
2023-05-08T22:56:48.337Z,83432.50
2023-05-08T22:59:17.625Z,83691.06
2023-05-08T23:01:45.050Z,83432.50
2023-05-08T23:04:12.419Z,83432.50
2023-05-08T23:06:44.573Z,83432.50
2023-05-08T23:09:16.549Z,83432.50
2023-05-08T23:11:47.421Z,83173.97
2023-05-08T23:14:14.656Z,82915.44
2023-05-08T23:16:41.968Z,82656.94
2023-05-08T23:19:10.074Z,82398.44
2023-05-08T23:21:40.970Z,82139.97
2023-05-08T23:24:08.665Z,82139.97
2023-05-08T23:26:35.866Z,81881.53
2023-05-08T23:29:03.766Z,81364.69
2023-05-08T23:31:30.940Z,81106.28
2023-05-08T23:33:58.300Z,81106.28
2023-05-08T23:36:27.679Z,80589.56
2023-05-08T23:38:54.883Z,80847.91
2023-05-08T23:41:27.009Z,80589.56
2023-05-08T23:43:58.967Z,81106.28
2023-05-08T23:46:28.845Z,81106.28
2023-05-08T23:48:56.144Z,81106.28
2023-05-08T23:51:23.766Z,81106.28
2023-05-08T23:53:51.124Z,80847.91
2023-05-08T23:56:18.658Z,80847.91
2023-05-08T23:58:46.126Z,81106.28
